Stanton, Minnesota
Current Conditions -  °F | °C
As of 8:34 PM on Sunday 23 Nov 2014 (Local Time) from KSYN Reporting Station
Drizzle Drizzle  
Wind Chill: 31°   Ceiling: 1000
Heat Index: 39°   Visibility: 7mi
Dew Point: 36°   Wind: 14mph
Humidity: 89%   Direction: 300°WNW
Pressure: 29.34"   Gusts: NA
Location:  44.3996°N, 92.9847°W
Report Text: KSYN 240234Z AUTO 30012KT 7SM DZ BKN010 OVC029 04/02 A2934 RMK AO2 T00380021
Loading
Personal Weather Stations






























Interactive Weather Map New forecast layout! Learn more

10-Day Weather Forecast

Advertisements
Track Severe Weather on mobile